createdAt,value
2022-12-26T00:02:16.003Z,26.35
2022-12-26T00:04:54.694Z,24.48
2022-12-26T00:07:24.717Z,24.30
2022-12-26T00:09:52.639Z,25.35
2022-12-26T00:12:39.554Z,26.58
2022-12-26T00:15:13.394Z,26.77
2022-12-26T00:17:41.446Z,25.52
2022-12-26T00:20:15.484Z,24.88
2022-12-26T00:22:46.618Z,25.50
2022-12-26T00:25:20.681Z,24.55
2022-12-26T00:27:50.064Z,25.30
2022-12-26T00:30:18.139Z,25.45
2022-12-26T00:32:46.243Z,24.35
2022-12-26T00:35:14.211Z,26.15
2022-12-26T00:37:42.346Z,25.17
2022-12-26T00:40:11.995Z,25.77
2022-12-26T00:42:40.031Z,25.95
2022-12-26T00:45:10.204Z,26.25
2022-12-26T00:47:38.089Z,23.83
2022-12-26T00:50:12.412Z,20.98
2022-12-26T00:52:43.452Z,24.73
2022-12-26T00:55:12.003Z,26.92
2022-12-26T00:57:40.018Z,24.42
2022-12-26T01:00:10.708Z,22.98
2022-12-26T01:02:41.941Z,23.85
2022-12-26T01:05:11.583Z,24.20
2022-12-26T01:08:22.694Z,23.83
2022-12-26T01:10:29.333Z,25.95
2022-12-26T01:12:57.301Z,27.58
2022-12-26T01:15:26.696Z,25.55
2022-12-26T01:17:54.648Z,28.02
2022-12-26T01:20:22.658Z,29.05
2022-12-26T01:22:50.660Z,30.95
2022-12-26T01:25:18.722Z,32.65
2022-12-26T01:27:46.761Z,31.83
2022-12-26T01:30:14.962Z,32.67
2022-12-26T01:32:44.312Z,34.93
2022-12-26T01:35:12.454Z,33.40
2022-12-26T01:37:40.422Z,34.63
2022-12-26T01:40:09.465Z,35.10
2022-12-26T01:42:39.725Z,35.17
2022-12-26T01:45:18.983Z,32.65
2022-12-26T01:47:54.702Z,33.42
2022-12-26T01:50:31.191Z,33.05
2022-12-26T01:53:02.602Z,37.03
2022-12-26T01:55:32.931Z,36.63
2022-12-26T01:58:05.899Z,36.90
2022-12-26T02:00:35.319Z,38.10
2022-12-26T02:03:23.179Z,39.00
2022-12-26T02:05:51.753Z,39.85
2022-12-26T02:08:23.728Z,40.30
2022-12-26T02:11:01.280Z,36.72
2022-12-26T02:13:31.710Z,35.03
2022-12-26T02:15:59.775Z,36.65
2022-12-26T02:18:29.164Z,36.97
2022-12-26T02:21:08.276Z,35.55
2022-12-26T02:26:52.480Z,34.55
2022-12-26T02:30:04.305Z,34.60
2022-12-26T02:32:54.749Z,34.60
2022-12-26T02:35:32.408Z,35.67
2022-12-26T02:38:14.509Z,35.67
2022-12-26T02:40:52.854Z,34.00
2022-12-26T02:43:28.214Z,35.97
2022-12-26T02:46:23.075Z,35.22
2022-12-26T02:48:59.947Z,33.63
2022-12-26T02:51:57.789Z,34.60
2022-12-26T02:54:47.601Z,36.47
2022-12-26T02:57:38.348Z,34.53
2022-12-26T03:00:30.701Z,34.63
2022-12-26T03:03:21.008Z,34.63
2022-12-26T03:06:12.967Z,33.25
2022-12-26T03:09:04.242Z,33.65
2022-12-26T03:11:55.894Z,34.42
2022-12-26T03:14:27.687Z,33.95
2022-12-26T03:17:22.451Z,33.15
2022-12-26T03:20:01.262Z,34.45
2022-12-26T03:22:36.069Z,36.28
2022-12-26T03:25:24.713Z,33.45
2022-12-26T03:27:54.092Z,36.20
2022-12-26T03:33:28.614Z,36.15
2022-12-26T03:35:55.869Z,36.88
2022-12-26T03:38:32.220Z,36.45
2022-12-26T03:41:24.722Z,38.08
2022-12-26T03:44:27.591Z,35.03
2022-12-26T03:47:27.518Z,34.58
2022-12-26T03:50:20.126Z,35.80
2022-12-26T03:53:14.498Z,34.70
2022-12-26T03:56:08.848Z,35.03
2022-12-26T03:59:00.582Z,35.03
2022-12-26T04:01:49.112Z,34.13
2022-12-26T04:04:37.340Z,34.78
2022-12-26T04:07:28.768Z,33.03
2022-12-26T04:10:21.609Z,32.63
2022-12-26T04:13:10.998Z,33.05
2022-12-26T04:16:03.853Z,32.67
2022-12-26T04:19:00.721Z,30.33
2022-12-26T04:21:55.118Z,31.40
2022-12-26T04:24:54.971Z,33.28
2022-12-26T04:27:44.892Z,31.70
2022-12-26T04:30:32.145Z,31.35
2022-12-26T04:33:24.889Z,31.38
2022-12-26T04:36:13.623Z,31.52
2022-12-26T04:39:01.436Z,32.75
2022-12-26T04:41:50.352Z,31.38
2022-12-26T04:46:49.875Z,29.98
2022-12-26T04:49:38.098Z,31.25
2022-12-26T04:52:08.843Z,32.33
2022-12-26T04:54:37.040Z,31.98
2022-12-26T04:57:05.279Z,31.63
2022-12-26T04:59:33.984Z,31.03
2022-12-26T05:02:20.661Z,31.50
2022-12-26T05:05:06.570Z,32.65
2022-12-26T05:07:56.053Z,31.98
2022-12-26T05:10:26.318Z,31.08
2022-12-26T05:12:54.939Z,31.50
2022-12-26T05:15:23.206Z,29.42
2022-12-26T05:18:09.729Z,29.93
2022-12-26T05:20:57.623Z,30.05
2022-12-26T05:23:46.458Z,30.80
2022-12-26T05:26:44.189Z,29.63
2022-12-26T05:29:12.296Z,28.30
2022-12-26T05:31:40.383Z,29.02
2022-12-26T05:34:10.671Z,29.00
2022-12-26T05:36:42.387Z,31.92
2022-12-26T05:39:10.884Z,29.58
2022-12-26T05:41:40.578Z,29.35
2022-12-26T05:44:09.635Z,28.73
2022-12-26T05:46:38.205Z,27.88
2022-12-26T05:49:07.302Z,26.40
2022-12-26T05:51:37.455Z,28.88
2022-12-26T05:54:05.893Z,28.50
2022-12-26T05:56:34.825Z,28.08
2022-12-26T05:59:03.279Z,27.63
2022-12-26T06:01:31.936Z,26.98
2022-12-26T06:04:01.529Z,26.00
2022-12-26T06:06:30.022Z,26.67
2022-12-26T06:08:59.485Z,26.60
2022-12-26T06:11:27.681Z,27.08
2022-12-26T06:13:56.538Z,27.53
2022-12-26T06:16:24.665Z,28.70
2022-12-26T06:21:21.485Z,27.60
2022-12-26T06:23:50.262Z,29.33
2022-12-26T06:26:19.666Z,29.10
2022-12-26T06:28:47.892Z,28.75
2022-12-26T06:31:20.619Z,28.10
2022-12-26T06:33:50.030Z,29.13
2022-12-26T06:36:19.415Z,28.00
2022-12-26T06:38:48.182Z,28.17
2022-12-26T06:41:18.155Z,29.40
2022-12-26T06:43:48.850Z,28.25
2022-12-26T06:46:19.424Z,29.52
2022-12-26T06:48:47.462Z,32.45
2022-12-26T06:51:17.601Z,33.80
2022-12-26T06:53:45.846Z,33.05
2022-12-26T06:56:15.832Z,32.88
2022-12-26T06:58:44.392Z,35.90
2022-12-26T07:01:15.702Z,36.22
2022-12-26T07:03:50.792Z,37.53
2022-12-26T07:06:23.834Z,36.10
2022-12-26T07:08:53.007Z,35.53
2022-12-26T07:13:49.580Z,34.10
2022-12-26T07:16:19.146Z,33.42
2022-12-26T07:18:47.207Z,33.78
2022-12-26T07:21:17.164Z,33.50
2022-12-26T07:23:45.136Z,34.45
2022-12-26T07:26:13.180Z,35.60
2022-12-26T07:28:41.174Z,36.03
2022-12-26T07:31:09.198Z,37.55
2022-12-26T07:33:38.481Z,40.58
2022-12-26T07:36:07.791Z,39.80
2022-12-26T07:38:35.792Z,39.22
2022-12-26T07:41:24.327Z,40.33
2022-12-26T07:43:52.568Z,38.13
2022-12-26T07:46:20.773Z,40.10
2022-12-26T07:48:50.298Z,39.57
2022-12-26T07:51:18.274Z,39.95
2022-12-26T07:53:46.257Z,39.63
2022-12-26T07:56:14.280Z,40.08
2022-12-26T07:58:42.303Z,36.33
2022-12-26T08:01:10.531Z,34.60
2022-12-26T08:06:10.660Z,36.55
2022-12-26T08:08:45.394Z,35.72
2022-12-26T08:11:18.376Z,35.00
2022-12-26T08:13:46.307Z,35.30
2022-12-26T08:16:15.538Z,34.10
2022-12-26T08:18:43.964Z,34.67
2022-12-26T08:21:14.316Z,35.85
2022-12-26T08:23:42.316Z,37.13
2022-12-26T08:26:16.390Z,38.58
2022-12-26T08:28:44.526Z,34.55
2022-12-26T08:31:15.027Z,39.23
2022-12-26T08:33:43.136Z,36.17
2022-12-26T08:36:16.884Z,34.30
2022-12-26T08:38:46.447Z,38.88
2022-12-26T08:41:14.434Z,41.22
2022-12-26T08:44:24.904Z,41.25
2022-12-26T08:46:30.371Z,42.40
2022-12-26T08:48:58.744Z,40.47
2022-12-26T08:51:28.179Z,38.50
2022-12-26T08:53:56.510Z,37.78
2022-12-26T08:56:26.449Z,38.47
2022-12-26T08:58:54.741Z,38.28
2022-12-26T09:01:24.881Z,37.33
2022-12-26T09:03:54.716Z,39.45
2022-12-26T09:06:23.179Z,37.42
2022-12-26T09:08:53.104Z,38.13
2022-12-26T09:11:26.751Z,38.78
2022-12-26T09:13:56.139Z,38.20
2022-12-26T09:16:26.236Z,39.95
2022-12-26T09:18:56.643Z,36.42
2022-12-26T09:21:25.505Z,36.97
2022-12-26T09:23:59.642Z,36.97
2022-12-26T09:26:28.239Z,36.50
2022-12-26T09:28:56.655Z,34.28
2022-12-26T09:31:26.743Z,37.58
2022-12-26T09:33:55.063Z,40.15
2022-12-26T09:36:24.947Z,35.42
2022-12-26T09:38:53.689Z,38.05
2022-12-26T09:41:37.509Z,34.47
2022-12-26T09:44:10.924Z,34.33
2022-12-26T09:46:46.674Z,34.35
2022-12-26T09:49:20.065Z,34.33
2022-12-26T09:51:51.979Z,33.28
2022-12-26T09:54:26.588Z,31.77
2022-12-26T09:57:07.411Z,32.75
2022-12-26T09:59:48.522Z,31.30
2022-12-26T10:02:19.975Z,31.92
